Decoded Metar for KROA (ROANOKE in VA, USA) (IATA:ROA) | Meteo·Mobile Aviation Weather
aviador You're here:

KROA Decoded Metar

ROANOKE in VA, USA
Report Time2019-03-21 00:54:00
UTC Time2019-03-21 01:35:10
Flight Rules vfr VFR
Wind120° at 06 kt
W.Decomp.*RWY 16: 5.1 kt HW 3.2 kt LCW
RWY 06: 2.2 kt HW 5.6 kt RCW
W.Rank120° ranks 8
Current wind is below 120° avg. (6.1)
Visibility9999 m
Phenomena:N/A
Clouds:Few 080 Hf
Expected CloudBase > 6,400 ft AGL from Temp-Dew spread
CeilingNone
Temp10°C (ISA -3)
Dew Point-6°C (32% RH)
AAT5.1°C
QNH1021 hPa
Density Alt663 ft
Elevation1,188 ft
Report Wrong Elevation
Raw Report
METAR KROA 210054Z 12006KT 10SM FEW080 10/M06 A3016 RMK AO2 SLP216
T01001061=

Extra information for KROA:More info

Metar Taf Metar & Taf Last 4 Metars F.Rules Stats Wind Profile Meteogram Temp Stats Airport Information Weather charts Add Link Nearby VenuesMetar ALERT Operation Metar Decoded Social comments

AIRNAV info for KROA